sensor_id;sensor_type;location;lat;lon;timestamp;P1;durP1;ratioP1;P2;durP2;ratioP2
59876;SDS011;45749;51.140;17.184;2022-10-16T00:01:32;8.28;;;6.10;;
59876;SDS011;45749;51.140;17.184;2022-10-16T00:03:58;8.73;;;6.80;;
59876;SDS011;45749;51.140;17.184;2022-10-16T00:06:26;9.58;;;6.62;;
59876;SDS011;45749;51.140;17.184;2022-10-16T00:08:53;8.25;;;6.75;;
59876;SDS011;45749;51.140;17.184;2022-10-16T00:11:22;7.33;;;6.60;;
59876;SDS011;45749;51.140;17.184;2022-10-16T00:13:55;8.58;;;6.30;;
59876;SDS011;45749;51.140;17.184;2022-10-16T00:16:23;9.25;;;6.35;;
59876;SDS011;45749;51.140;17.184;2022-10-16T00:18:50;8.53;;;6.92;;
59876;SDS011;45749;51.140;17.184;2022-10-16T00:21:17;6.90;;;5.85;;
59876;SDS011;45749;51.140;17.184;2022-10-16T00:23:46;10.32;;;7.05;;
59876;SDS011;45749;51.140;17.184;2022-10-16T00:26:24;8.65;;;6.42;;
59876;SDS011;45749;51.140;17.184;2022-10-16T00:28:51;7.53;;;5.62;;
59876;SDS011;45749;51.140;17.184;2022-10-16T00:31:18;10.03;;;6.37;;
59876;SDS011;45749;51.140;17.184;2022-10-16T00:33:47;8.60;;;6.50;;
59876;SDS011;45749;51.140;17.184;2022-10-16T00:36:15;11.50;;;6.55;;
59876;SDS011;45749;51.140;17.184;2022-10-16T00:38:44;10.05;;;6.42;;
59876;SDS011;45749;51.140;17.184;2022-10-16T00:41:15;7.58;;;6.20;;
59876;SDS011;45749;51.140;17.184;2022-10-16T00:43:44;10.60;;;6.72;;
59876;SDS011;45749;51.140;17.184;2022-10-16T00:46:20;26.07;;;10.50;;
59876;SDS011;45749;51.140;17.184;2022-10-16T00:51:34;17.00;;;8.00;;
59876;SDS011;45749;51.140;17.184;2022-10-16T00:54:04;26.23;;;10.75;;
59876;SDS011;45749;51.140;17.184;2022-10-16T00:56:37;17.92;;;8.30;;
59876;SDS011;45749;51.140;17.184;2022-10-16T00:59:04;13.20;;;6.75;;
59876;SDS011;45749;51.140;17.184;2022-10-16T01:01:35;8.13;;;6.00;;
59876;SDS011;45749;51.140;17.184;2022-10-16T01:04:02;9.83;;;5.35;;
59876;SDS011;45749;51.140;17.184;2022-10-16T01:06:33;11.28;;;6.55;;
59876;SDS011;45749;51.140;17.184;2022-10-16T01:09:20;7.08;;;5.20;;
59876;SDS011;45749;51.140;17.184;2022-10-16T01:12:12;5.75;;;5.15;;
59876;SDS011;45749;51.140;17.184;2022-10-16T01:14:48;6.55;;;4.72;;
59876;SDS011;45749;51.140;17.184;2022-10-16T01:28:32;6.92;;;5.05;;
59876;SDS011;45749;51.140;17.184;2022-10-16T01:31:08;7.95;;;5.10;;
59876;SDS011;45749;51.140;17.184;2022-10-16T01:33:40;7.70;;;5.85;;
59876;SDS011;45749;51.140;17.184;2022-10-16T01:36:16;6.45;;;4.67;;
59876;SDS011;45749;51.140;17.184;2022-10-16T01:38:51;5.80;;;5.20;;
59876;SDS011;45749;51.140;17.184;2022-10-16T01:41:21;5.25;;;4.35;;
59876;SDS011;45749;51.140;17.184;2022-10-16T01:46:31;8.03;;;4.62;;
59876;SDS011;45749;51.140;17.184;2022-10-16T01:49:01;5.45;;;4.67;;
59876;SDS011;45749;51.140;17.184;2022-10-16T01:51:29;5.72;;;4.60;;
59876;SDS011;45749;51.140;17.184;2022-10-16T01:53:56;7.70;;;4.92;;
59876;SDS011;45749;51.140;17.184;2022-10-16T01:56:26;6.40;;;4.80;;
59876;SDS011;45749;51.140;17.184;2022-10-16T01:58:55;6.42;;;5.55;;
59876;SDS011;45749;51.140;17.184;2022-10-16T02:01:28;5.62;;;4.40;;
59876;SDS011;45749;51.140;17.184;2022-10-16T02:03:59;12.37;;;5.40;;
59876;SDS011;45749;51.140;17.184;2022-10-16T02:06:29;7.10;;;4.95;;
59876;SDS011;45749;51.140;17.184;2022-10-16T02:08:55;8.10;;;5.42;;
59876;SDS011;45749;51.140;17.184;2022-10-16T02:11:21;7.85;;;4.45;;
59876;SDS011;45749;51.140;17.184;2022-10-16T02:13:48;7.22;;;5.08;;
59876;SDS011;45749;51.140;17.184;2022-10-16T02:16:34;6.22;;;4.70;;
59876;SDS011;45749;51.140;17.184;2022-10-16T02:19:07;7.33;;;4.87;;
59876;SDS011;45749;51.140;17.184;2022-10-16T02:21:39;7.90;;;5.15;;
59876;SDS011;45749;51.140;17.184;2022-10-16T02:24:27;9.20;;;5.12;;
59876;SDS011;45749;51.140;17.184;2022-10-16T02:27:13;7.70;;;4.95;;
59876;SDS011;45749;51.140;17.184;2022-10-16T02:30:06;8.55;;;5.53;;
59876;SDS011;45749;51.140;17.184;2022-10-16T02:32:36;6.03;;;4.90;;
59876;SDS011;45749;51.140;17.184;2022-10-16T02:35:05;11.73;;;6.72;;
59876;SDS011;45749;51.140;17.184;2022-10-16T02:37:33;7.72;;;5.50;;
59876;SDS011;45749;51.140;17.184;2022-10-16T02:40:00;12.70;;;6.83;;
59876;SDS011;45749;51.140;17.184;2022-10-16T02:42:37;11.30;;;6.67;;
59876;SDS011;45749;51.140;17.184;2022-10-16T02:45:06;11.40;;;6.58;;
59876;SDS011;45749;51.140;17.184;2022-10-16T02:47:34;10.90;;;5.72;;
59876;SDS011;45749;51.140;17.184;2022-10-16T02:50:00;10.75;;;6.33;;
59876;SDS011;45749;51.140;17.184;2022-10-16T02:52:26;14.18;;;6.87;;
59876;SDS011;45749;51.140;17.184;2022-10-16T02:54:52;11.80;;;6.35;;
59876;SDS011;45749;51.140;17.184;2022-10-16T02:57:18;7.67;;;5.28;;
59876;SDS011;45749;51.140;17.184;2022-10-16T02:59:44;11.93;;;6.15;;
59876;SDS011;45749;51.140;17.184;2022-10-16T03:02:10;8.53;;;5.67;;
59876;SDS011;45749;51.140;17.184;2022-10-16T03:04:37;9.93;;;5.72;;
59876;SDS011;45749;51.140;17.184;2022-10-16T03:07:03;10.95;;;6.00;;
59876;SDS011;45749;51.140;17.184;2022-10-16T03:09:29;7.62;;;5.30;;
59876;SDS011;45749;51.140;17.184;2022-10-16T03:11:55;9.33;;;5.72;;
59876;SDS011;45749;51.140;17.184;2022-10-16T03:14:21;8.33;;;5.28;;
59876;SDS011;45749;51.140;17.184;2022-10-16T03:16:47;7.62;;;5.87;;
59876;SDS011;45749;51.140;17.184;2022-10-16T03:19:13;8.63;;;5.65;;
59876;SDS011;45749;51.140;17.184;2022-10-16T03:21:42;8.10;;;5.30;;
59876;SDS011;45749;51.140;17.184;2022-10-16T03:24:09;10.80;;;6.17;;
59876;SDS011;45749;51.140;17.184;2022-10-16T03:26:35;8.80;;;5.30;;
59876;SDS011;45749;51.140;17.184;2022-10-16T03:29:01;9.45;;;6.05;;
59876;SDS011;45749;51.140;17.184;2022-10-16T03:31:28;5.58;;;5.03;;
59876;SDS011;45749;51.140;17.184;2022-10-16T03:33:55;8.73;;;5.75;;
59876;SDS011;45749;51.140;17.184;2022-10-16T03:36:21;6.72;;;4.92;;
59876;SDS011;45749;51.140;17.184;2022-10-16T03:38:47;14.90;;;7.08;;
59876;SDS011;45749;51.140;17.184;2022-10-16T03:41:13;16.73;;;8.15;;
59876;SDS011;45749;51.140;17.184;2022-10-16T03:43:39;14.03;;;6.53;;
59876;SDS011;45749;51.140;17.184;2022-10-16T03:46:05;9.98;;;6.87;;
59876;SDS011;45749;51.140;17.184;2022-10-16T03:48:31;12.20;;;6.62;;
59876;SDS011;45749;51.140;17.184;2022-10-16T03:50:57;11.73;;;7.53;;
59876;SDS011;45749;51.140;17.184;2022-10-16T03:53:24;8.10;;;6.40;;
59876;SDS011;45749;51.140;17.184;2022-10-16T03:55:50;11.10;;;6.95;;
59876;SDS011;45749;51.140;17.184;2022-10-16T03:58:16;8.95;;;7.55;;
59876;SDS011;45749;51.140;17.184;2022-10-16T04:00:43;7.67;;;6.62;;
59876;SDS011;45749;51.140;17.184;2022-10-16T04:03:12;9.78;;;6.83;;
59876;SDS011;45749;51.140;17.184;2022-10-16T04:05:38;12.63;;;6.72;;
59876;SDS011;45749;51.140;17.184;2022-10-16T04:08:08;8.10;;;6.40;;
59876;SDS011;45749;51.140;17.184;2022-10-16T04:10:34;11.03;;;6.15;;
59876;SDS011;45749;51.140;17.184;2022-10-16T04:13:00;8.53;;;5.80;;
59876;SDS011;45749;51.140;17.184;2022-10-16T04:15:26;7.05;;;6.00;;
59876;SDS011;45749;51.140;17.184;2022-10-16T04:17:52;9.20;;;6.80;;
59876;SDS011;45749;51.140;17.184;2022-10-16T04:20:18;8.05;;;6.15;;
59876;SDS011;45749;51.140;17.184;2022-10-16T04:22:44;8.70;;;5.97;;
59876;SDS011;45749;51.140;17.184;2022-10-16T04:25:10;8.70;;;6.33;;
59876;SDS011;45749;51.140;17.184;2022-10-16T04:27:37;7.12;;;6.05;;
59876;SDS011;45749;51.140;17.184;2022-10-16T04:30:04;7.97;;;6.80;;
59876;SDS011;45749;51.140;17.184;2022-10-16T04:32:31;8.55;;;6.55;;
59876;SDS011;45749;51.140;17.184;2022-10-16T04:34:57;6.95;;;6.10;;
59876;SDS011;45749;51.140;17.184;2022-10-16T04:37:24;8.23;;;6.95;;
59876;SDS011;45749;51.140;17.184;2022-10-16T04:39:51;10.40;;;6.65;;
59876;SDS011;45749;51.140;17.184;2022-10-16T04:42:18;7.45;;;6.53;;
59876;SDS011;45749;51.140;17.184;2022-10-16T04:44:45;10.50;;;7.40;;
59876;SDS011;45749;51.140;17.184;2022-10-16T04:47:12;9.35;;;6.75;;
59876;SDS011;45749;51.140;17.184;2022-10-16T04:49:39;7.08;;;6.15;;
59876;SDS011;45749;51.140;17.184;2022-10-16T04:52:05;7.42;;;6.40;;
59876;SDS011;45749;51.140;17.184;2022-10-16T04:54:31;6.95;;;6.10;;
59876;SDS011;45749;51.140;17.184;2022-10-16T04:56:57;8.95;;;6.12;;
59876;SDS011;45749;51.140;17.184;2022-10-16T04:59:23;8.98;;;7.05;;
59876;SDS011;45749;51.140;17.184;2022-10-16T05:01:50;8.00;;;6.03;;
59876;SDS011;45749;51.140;17.184;2022-10-16T05:04:16;7.37;;;5.80;;
59876;SDS011;45749;51.140;17.184;2022-10-16T05:06:42;8.68;;;7.45;;
59876;SDS011;45749;51.140;17.184;2022-10-16T05:09:08;8.60;;;6.70;;
59876;SDS011;45749;51.140;17.184;2022-10-16T05:11:35;9.55;;;7.60;;
59876;SDS011;45749;51.140;17.184;2022-10-16T05:14:01;12.10;;;8.13;;
59876;SDS011;45749;51.140;17.184;2022-10-16T05:16:28;8.68;;;7.35;;
59876;SDS011;45749;51.140;17.184;2022-10-16T05:18:55;8.73;;;7.35;;
59876;SDS011;45749;51.140;17.184;2022-10-16T05:21:22;9.63;;;7.47;;
59876;SDS011;45749;51.140;17.184;2022-10-16T05:23:48;9.85;;;7.05;;
59876;SDS011;45749;51.140;17.184;2022-10-16T05:26:14;9.13;;;6.60;;
59876;SDS011;45749;51.140;17.184;2022-10-16T05:28:40;10.63;;;7.97;;
59876;SDS011;45749;51.140;17.184;2022-10-16T05:31:07;9.43;;;7.17;;
59876;SDS011;45749;51.140;17.184;2022-10-16T05:33:35;10.23;;;8.15;;
59876;SDS011;45749;51.140;17.184;2022-10-16T05:36:03;10.72;;;8.28;;
59876;SDS011;45749;51.140;17.184;2022-10-16T05:38:32;9.18;;;7.92;;
59876;SDS011;45749;51.140;17.184;2022-10-16T05:41:00;12.70;;;8.10;;
59876;SDS011;45749;51.140;17.184;2022-10-16T05:43:27;19.05;;;11.33;;
59876;SDS011;45749;51.140;17.184;2022-10-16T05:45:55;16.67;;;11.70;;
59876;SDS011;45749;51.140;17.184;2022-10-16T05:48:24;13.30;;;10.05;;
59876;SDS011;45749;51.140;17.184;2022-10-16T05:51:02;11.33;;;9.10;;
59876;SDS011;45749;51.140;17.184;2022-10-16T05:53:27;12.35;;;9.75;;
59876;SDS011;45749;51.140;17.184;2022-10-16T05:55:56;16.55;;;9.60;;
59876;SDS011;45749;51.140;17.184;2022-10-16T05:58:22;11.65;;;8.50;;
59876;SDS011;45749;51.140;17.184;2022-10-16T06:00:57;10.53;;;8.38;;
59876;SDS011;45749;51.140;17.184;2022-10-16T06:03:23;12.80;;;10.25;;
59876;SDS011;45749;51.140;17.184;2022-10-16T06:05:49;11.15;;;9.55;;
59876;SDS011;45749;51.140;17.184;2022-10-16T06:08:17;18.57;;;12.85;;
59876;SDS011;45749;51.140;17.184;2022-10-16T06:10:44;18.20;;;13.85;;
59876;SDS011;45749;51.140;17.184;2022-10-16T06:13:11;19.57;;;14.15;;
59876;SDS011;45749;51.140;17.184;2022-10-16T06:15:39;15.43;;;11.68;;
59876;SDS011;45749;51.140;17.184;2022-10-16T06:18:11;19.77;;;12.13;;
59876;SDS011;45749;51.140;17.184;2022-10-16T06:20:35;31.82;;;15.72;;
59876;SDS011;45749;51.140;17.184;2022-10-16T06:23:02;29.72;;;15.80;;
59876;SDS011;45749;51.140;17.184;2022-10-16T06:25:29;31.55;;;14.35;;
59876;SDS011;45749;51.140;17.184;2022-10-16T06:27:56;22.48;;;11.68;;
59876;SDS011;45749;51.140;17.184;2022-10-16T06:30:22;13.32;;;9.38;;
59876;SDS011;45749;51.140;17.184;2022-10-16T06:32:48;12.75;;;8.78;;
59876;SDS011;45749;51.140;17.184;2022-10-16T06:35:15;10.28;;;8.60;;
59876;SDS011;45749;51.140;17.184;2022-10-16T06:37:41;12.28;;;9.10;;
59876;SDS011;45749;51.140;17.184;2022-10-16T06:40:07;10.32;;;8.05;;
59876;SDS011;45749;51.140;17.184;2022-10-16T06:42:33;13.05;;;10.20;;
59876;SDS011;45749;51.140;17.184;2022-10-16T06:44:59;12.13;;;8.83;;
59876;SDS011;45749;51.140;17.184;2022-10-16T06:47:26;11.10;;;8.40;;
59876;SDS011;45749;51.140;17.184;2022-10-16T06:49:52;12.58;;;8.60;;
59876;SDS011;45749;51.140;17.184;2022-10-16T06:52:18;14.47;;;10.28;;
59876;SDS011;45749;51.140;17.184;2022-10-16T06:54:44;13.13;;;9.53;;
59876;SDS011;45749;51.140;17.184;2022-10-16T06:57:10;13.60;;;10.10;;
59876;SDS011;45749;51.140;17.184;2022-10-16T06:59:36;14.80;;;10.45;;
59876;SDS011;45749;51.140;17.184;2022-10-16T07:02:02;11.40;;;9.45;;
59876;SDS011;45749;51.140;17.184;2022-10-16T07:04:27;13.13;;;9.68;;
59876;SDS011;45749;51.140;17.184;2022-10-16T07:06:53;15.08;;;9.95;;
59876;SDS011;45749;51.140;17.184;2022-10-16T07:09:19;10.72;;;8.15;;
59876;SDS011;45749;51.140;17.184;2022-10-16T07:11:45;8.88;;;6.85;;
59876;SDS011;45749;51.140;17.184;2022-10-16T07:14:17;9.78;;;6.87;;
59876;SDS011;45749;51.140;17.184;2022-10-16T07:16:46;9.63;;;8.08;;
59876;SDS011;45749;51.140;17.184;2022-10-16T07:19:13;11.05;;;8.30;;
59876;SDS011;45749;51.140;17.184;2022-10-16T07:21:42;9.55;;;7.05;;
59876;SDS011;45749;51.140;17.184;2022-10-16T07:24:12;10.15;;;7.28;;
59876;SDS011;45749;51.140;17.184;2022-10-16T07:26:40;8.25;;;6.92;;
59876;SDS011;45749;51.140;17.184;2022-10-16T07:29:14;8.68;;;6.10;;
59876;SDS011;45749;51.140;17.184;2022-10-16T07:31:44;7.45;;;6.40;;
59876;SDS011;45749;51.140;17.184;2022-10-16T07:34:11;8.73;;;7.70;;
59876;SDS011;45749;51.140;17.184;2022-10-16T07:36:39;11.25;;;6.95;;
59876;SDS011;45749;51.140;17.184;2022-10-16T07:39:06;8.95;;;6.62;;
59876;SDS011;45749;51.140;17.184;2022-10-16T07:41:32;17.23;;;8.73;;
59876;SDS011;45749;51.140;17.184;2022-10-16T07:44:00;12.47;;;8.10;;
59876;SDS011;45749;51.140;17.184;2022-10-16T07:46:26;14.25;;;7.55;;
59876;SDS011;45749;51.140;17.184;2022-10-16T07:48:52;15.00;;;8.43;;
59876;SDS011;45749;51.140;17.184;2022-10-16T07:51:20;12.53;;;8.13;;
59876;SDS011;45749;51.140;17.184;2022-10-16T07:53:48;10.48;;;6.87;;
59876;SDS011;45749;51.140;17.184;2022-10-16T07:56:15;12.58;;;8.35;;
59876;SDS011;45749;51.140;17.184;2022-10-16T07:58:41;11.90;;;7.42;;
59876;SDS011;45749;51.140;17.184;2022-10-16T08:01:12;11.93;;;6.67;;
59876;SDS011;45749;51.140;17.184;2022-10-16T08:03:48;5.95;;;4.42;;
59876;SDS011;45749;51.140;17.184;2022-10-16T08:06:14;6.78;;;4.80;;
59876;SDS011;45749;51.140;17.184;2022-10-16T08:08:41;7.28;;;5.75;;
59876;SDS011;45749;51.140;17.184;2022-10-16T08:11:07;4.80;;;4.30;;
59876;SDS011;45749;51.140;17.184;2022-10-16T08:13:34;6.47;;;4.78;;
59876;SDS011;45749;51.140;17.184;2022-10-16T08:16:01;8.03;;;4.58;;
59876;SDS011;45749;51.140;17.184;2022-10-16T08:18:30;6.30;;;5.42;;
59876;SDS011;45749;51.140;17.184;2022-10-16T08:20:57;6.78;;;4.70;;
59876;SDS011;45749;51.140;17.184;2022-10-16T08:23:25;6.55;;;5.53;;
59876;SDS011;45749;51.140;17.184;2022-10-16T08:25:52;8.85;;;6.90;;
59876;SDS011;45749;51.140;17.184;2022-10-16T08:28:20;6.30;;;5.55;;
59876;SDS011;45749;51.140;17.184;2022-10-16T08:30:46;6.45;;;5.20;;
59876;SDS011;45749;51.140;17.184;2022-10-16T08:33:13;7.05;;;6.22;;
59876;SDS011;45749;51.140;17.184;2022-10-16T08:35:39;5.62;;;4.45;;
59876;SDS011;45749;51.140;17.184;2022-10-16T08:38:05;4.75;;;4.25;;
59876;SDS011;45749;51.140;17.184;2022-10-16T08:40:33;6.05;;;5.42;;
59876;SDS011;45749;51.140;17.184;2022-10-16T08:51:24;6.58;;;4.78;;
59876;SDS011;45749;51.140;17.184;2022-10-16T08:54:04;6.47;;;4.92;;
59876;SDS011;45749;51.140;17.184;2022-10-16T08:56:36;6.37;;;4.55;;
59876;SDS011;45749;51.140;17.184;2022-10-16T08:59:03;6.58;;;5.55;;
59876;SDS011;45749;51.140;17.184;2022-10-16T09:01:40;6.83;;;4.97;;
59876;SDS011;45749;51.140;17.184;2022-10-16T09:13:18;6.37;;;5.37;;
59876;SDS011;45749;51.140;17.184;2022-10-16T09:21:31;8.63;;;6.28;;
59876;SDS011;45749;51.140;17.184;2022-10-16T09:23:58;7.67;;;6.53;;
59876;SDS011;45749;51.140;17.184;2022-10-16T09:26:44;8.00;;;5.90;;
59876;SDS011;45749;51.140;17.184;2022-10-16T09:29:16;7.10;;;5.95;;
59876;SDS011;45749;51.140;17.184;2022-10-16T09:31:41;6.90;;;5.92;;
59876;SDS011;45749;51.140;17.184;2022-10-16T09:37:08;7.37;;;5.42;;
59876;SDS011;45749;51.140;17.184;2022-10-16T09:39:45;10.40;;;6.17;;
59876;SDS011;45749;51.140;17.184;2022-10-16T09:42:18;9.50;;;6.50;;
59876;SDS011;45749;51.140;17.184;2022-10-16T09:44:49;7.80;;;5.83;;
59876;SDS011;45749;51.140;17.184;2022-10-16T09:47:26;9.03;;;6.22;;
59876;SDS011;45749;51.140;17.184;2022-10-16T09:49:52;7.90;;;5.72;;
59876;SDS011;45749;51.140;17.184;2022-10-16T09:52:21;7.83;;;5.22;;
59876;SDS011;45749;51.140;17.184;2022-10-16T09:57:20;6.58;;;4.92;;
59876;SDS011;45749;51.140;17.184;2022-10-16T10:02:34;6.97;;;5.13;;
59876;SDS011;45749;51.140;17.184;2022-10-16T10:05:01;7.78;;;5.75;;
59876;SDS011;45749;51.140;17.184;2022-10-16T10:07:30;7.92;;;4.75;;
59876;SDS011;45749;51.140;17.184;2022-10-16T10:10:01;5.85;;;5.00;;
59876;SDS011;45749;51.140;17.184;2022-10-16T10:12:30;6.50;;;4.30;;
59876;SDS011;45749;51.140;17.184;2022-10-16T10:17:56;3.95;;;3.65;;
59876;SDS011;45749;51.140;17.184;2022-10-16T10:20:35;5.15;;;3.65;;
59876;SDS011;45749;51.140;17.184;2022-10-16T10:23:24;3.77;;;2.85;;
59876;SDS011;45749;51.140;17.184;2022-10-16T10:37:58;3.33;;;2.75;;
59876;SDS011;45749;51.140;17.184;2022-10-16T10:55:20;2.83;;;1.95;;
59876;SDS011;45749;51.140;17.184;2022-10-16T11:01:29;3.60;;;2.35;;
59876;SDS011;45749;51.140;17.184;2022-10-16T11:07:00;3.80;;;1.95;;
59876;SDS011;45749;51.140;17.184;2022-10-16T11:09:47;3.72;;;3.33;;
59876;SDS011;45749;51.140;17.184;2022-10-16T11:12:27;5.42;;;4.50;;
59876;SDS011;45749;51.140;17.184;2022-10-16T11:15:18;4.08;;;2.90;;
59876;SDS011;45749;51.140;17.184;2022-10-16T11:18:38;4.15;;;2.60;;
59876;SDS011;45749;51.140;17.184;2022-10-16T11:20:24;2.10;;;1.72;;
59876;SDS011;45749;51.140;17.184;2022-10-16T11:22:54;3.22;;;2.10;;
59876;SDS011;45749;51.140;17.184;2022-10-16T11:25:28;2.90;;;2.60;;
59876;SDS011;45749;51.140;17.184;2022-10-16T11:28:06;3.62;;;2.95;;
59876;SDS011;45749;51.140;17.184;2022-10-16T11:36:25;2.08;;;1.37;;
59876;SDS011;45749;51.140;17.184;2022-10-16T11:47:42;2.37;;;1.60;;
59876;SDS011;45749;51.140;17.184;2022-10-16T11:50:22;3.25;;;1.90;;
59876;SDS011;45749;51.140;17.184;2022-10-16T11:55:39;3.92;;;1.72;;
59876;SDS011;45749;51.140;17.184;2022-10-16T11:58:25;4.60;;;1.50;;
59876;SDS011;45749;51.140;17.184;2022-10-16T12:09:20;3.75;;;2.85;;
59876;SDS011;45749;51.140;17.184;2022-10-16T12:12:02;4.30;;;3.37;;
59876;SDS011;45749;51.140;17.184;2022-10-16T12:14:38;3.77;;;2.85;;
59876;SDS011;45749;51.140;17.184;2022-10-16T12:20:29;5.05;;;3.20;;
59876;SDS011;45749;51.140;17.184;2022-10-16T12:28:05;4.12;;;3.10;;
59876;SDS011;45749;51.140;17.184;2022-10-16T12:30:57;5.20;;;3.08;;
59876;SDS011;45749;51.140;17.184;2022-10-16T12:33:24;4.87;;;3.47;;
59876;SDS011;45749;51.140;17.184;2022-10-16T12:35:54;4.35;;;3.75;;
59876;SDS011;45749;51.140;17.184;2022-10-16T12:41:23;5.85;;;3.17;;
59876;SDS011;45749;51.140;17.184;2022-10-16T12:44:05;4.22;;;3.40;;
59876;SDS011;45749;51.140;17.184;2022-10-16T12:46:39;4.75;;;3.47;;
59876;SDS011;45749;51.140;17.184;2022-10-16T12:51:55;7.83;;;4.85;;
59876;SDS011;45749;51.140;17.184;2022-10-16T12:54:42;5.80;;;5.20;;
59876;SDS011;45749;51.140;17.184;2022-10-16T13:06:27;7.58;;;4.92;;
59876;SDS011;45749;51.140;17.184;2022-10-16T13:18:21;6.47;;;5.40;;
59876;SDS011;45749;51.140;17.184;2022-10-16T13:23:42;6.17;;;5.42;;
59876;SDS011;45749;51.140;17.184;2022-10-16T13:29:13;7.87;;;6.15;;
59876;SDS011;45749;51.140;17.184;2022-10-16T13:31:42;6.47;;;5.78;;
59876;SDS011;45749;51.140;17.184;2022-10-16T13:34:15;7.65;;;6.50;;
59876;SDS011;45749;51.140;17.184;2022-10-16T13:36:48;8.30;;;5.72;;
59876;SDS011;45749;51.140;17.184;2022-10-16T13:39:21;8.18;;;6.40;;
59876;SDS011;45749;51.140;17.184;2022-10-16T13:42:04;7.90;;;5.85;;
59876;SDS011;45749;51.140;17.184;2022-10-16T13:44:44;8.70;;;6.67;;
59876;SDS011;45749;51.140;17.184;2022-10-16T13:47:21;10.32;;;6.50;;
59876;SDS011;45749;51.140;17.184;2022-10-16T13:50:09;7.28;;;6.22;;
59876;SDS011;45749;51.140;17.184;2022-10-16T13:52:39;10.80;;;6.53;;
59876;SDS011;45749;51.140;17.184;2022-10-16T13:55:14;7.80;;;6.40;;
59876;SDS011;45749;51.140;17.184;2022-10-16T13:57:47;11.00;;;6.12;;
59876;SDS011;45749;51.140;17.184;2022-10-16T14:00:23;8.35;;;6.60;;
59876;SDS011;45749;51.140;17.184;2022-10-16T14:03:04;8.28;;;6.90;;
59876;SDS011;45749;51.140;17.184;2022-10-16T14:05:30;7.42;;;6.33;;
59876;SDS011;45749;51.140;17.184;2022-10-16T14:07:56;7.28;;;6.50;;
59876;SDS011;45749;51.140;17.184;2022-10-16T14:12:59;6.70;;;6.00;;
59876;SDS011;45749;51.140;17.184;2022-10-16T14:15:29;7.30;;;5.80;;
59876;SDS011;45749;51.140;17.184;2022-10-16T14:17:57;6.28;;;5.05;;
59876;SDS011;45749;51.140;17.184;2022-10-16T14:20:26;6.45;;;4.97;;
59876;SDS011;45749;51.140;17.184;2022-10-16T14:22:58;8.30;;;5.12;;
59876;SDS011;45749;51.140;17.184;2022-10-16T14:25:32;8.03;;;5.80;;
59876;SDS011;45749;51.140;17.184;2022-10-16T14:27:59;8.00;;;5.10;;
59876;SDS011;45749;51.140;17.184;2022-10-16T14:30:33;7.03;;;5.78;;
59876;SDS011;45749;51.140;17.184;2022-10-16T14:33:05;13.03;;;11.63;;
59876;SDS011;45749;51.140;17.184;2022-10-16T14:35:36;114.22;;;85.22;;
59876;SDS011;45749;51.140;17.184;2022-10-16T14:38:05;49.33;;;43.92;;
59876;SDS011;45749;51.140;17.184;2022-10-16T14:40:35;33.42;;;30.15;;
59876;SDS011;45749;51.140;17.184;2022-10-16T14:43:06;15.95;;;14.55;;
59876;SDS011;45749;51.140;17.184;2022-10-16T14:48:19;8.13;;;7.33;;
59876;SDS011;45749;51.140;17.184;2022-10-16T14:51:00;9.65;;;8.00;;
59876;SDS011;45749;51.140;17.184;2022-10-16T14:53:24;15.50;;;9.98;;
59876;SDS011;45749;51.140;17.184;2022-10-16T14:55:58;10.80;;;9.23;;
59876;SDS011;45749;51.140;17.184;2022-10-16T15:14:14;6.85;;;6.15;;
59876;SDS011;45749;51.140;17.184;2022-10-16T15:16:44;9.78;;;5.70;;
59876;SDS011;45749;51.140;17.184;2022-10-16T15:19:24;6.80;;;5.15;;
59876;SDS011;45749;51.140;17.184;2022-10-16T15:21:52;8.00;;;5.67;;
59876;SDS011;45749;51.140;17.184;2022-10-16T15:36:32;7.22;;;6.53;;
59876;SDS011;45749;51.140;17.184;2022-10-16T15:39:10;7.75;;;6.65;;
59876;SDS011;45749;51.140;17.184;2022-10-16T15:41:32;8.33;;;6.87;;
59876;SDS011;45749;51.140;17.184;2022-10-16T15:43:58;11.43;;;7.95;;
59876;SDS011;45749;51.140;17.184;2022-10-16T15:46:24;9.08;;;8.10;;
59876;SDS011;45749;51.140;17.184;2022-10-16T15:48:51;11.75;;;9.03;;
59876;SDS011;45749;51.140;17.184;2022-10-16T15:51:23;9.83;;;7.92;;
59876;SDS011;45749;51.140;17.184;2022-10-16T15:54:04;10.80;;;9.70;;
59876;SDS011;45749;51.140;17.184;2022-10-16T15:56:30;12.03;;;9.60;;
59876;SDS011;45749;51.140;17.184;2022-10-16T15:58:59;16.40;;;10.30;;
59876;SDS011;45749;51.140;17.184;2022-10-16T16:01:35;9.70;;;8.63;;
59876;SDS011;45749;51.140;17.184;2022-10-16T16:04:03;9.55;;;8.50;;
59876;SDS011;45749;51.140;17.184;2022-10-16T16:06:32;34.40;;;25.45;;
59876;SDS011;45749;51.140;17.184;2022-10-16T16:08:59;34.27;;;26.17;;
59876;SDS011;45749;51.140;17.184;2022-10-16T16:11:25;32.60;;;24.12;;
59876;SDS011;45749;51.140;17.184;2022-10-16T16:13:51;29.90;;;22.37;;
59876;SDS011;45749;51.140;17.184;2022-10-16T16:16:19;61.02;;;46.02;;
59876;SDS011;45749;51.140;17.184;2022-10-16T16:18:46;26.70;;;20.68;;
59876;SDS011;45749;51.140;17.184;2022-10-16T16:21:29;86.05;;;64.67;;
59876;SDS011;45749;51.140;17.184;2022-10-16T16:24:18;69.97;;;52.75;;
59876;SDS011;45749;51.140;17.184;2022-10-16T16:26:46;53.10;;;40.85;;
59876;SDS011;45749;51.140;17.184;2022-10-16T16:29:13;37.93;;;30.68;;
59876;SDS011;45749;51.140;17.184;2022-10-16T16:31:41;38.63;;;30.12;;
59876;SDS011;45749;51.140;17.184;2022-10-16T16:34:08;65.85;;;47.70;;
59876;SDS011;45749;51.140;17.184;2022-10-16T16:36:48;27.67;;;20.72;;
59876;SDS011;45749;51.140;17.184;2022-10-16T16:39:19;36.65;;;26.97;;
59876;SDS011;45749;51.140;17.184;2022-10-16T16:41:47;23.27;;;17.92;;
59876;SDS011;45749;51.140;17.184;2022-10-16T16:44:28;45.28;;;39.08;;
59876;SDS011;45749;51.140;17.184;2022-10-16T16:46:54;49.58;;;42.10;;
59876;SDS011;45749;51.140;17.184;2022-10-16T16:49:22;19.52;;;17.48;;
59876;SDS011;45749;51.140;17.184;2022-10-16T16:51:49;27.10;;;21.30;;
59876;SDS011;45749;51.140;17.184;2022-10-16T16:54:19;26.55;;;23.70;;
59876;SDS011;45749;51.140;17.184;2022-10-16T16:56:43;47.27;;;39.63;;
59876;SDS011;45749;51.140;17.184;2022-10-16T16:59:11;32.25;;;23.05;;
59876;SDS011;45749;51.140;17.184;2022-10-16T17:01:41;82.90;;;56.00;;
59876;SDS011;45749;51.140;17.184;2022-10-16T17:04:11;43.25;;;30.48;;
59876;SDS011;45749;51.140;17.184;2022-10-16T17:06:57;73.78;;;54.23;;
59876;SDS011;45749;51.140;17.184;2022-10-16T17:09:27;44.15;;;35.65;;
59876;SDS011;45749;51.140;17.184;2022-10-16T17:11:53;99.92;;;73.78;;
59876;SDS011;45749;51.140;17.184;2022-10-16T17:14:20;85.67;;;65.60;;
59876;SDS011;45749;51.140;17.184;2022-10-16T17:16:51;54.58;;;41.08;;
59876;SDS011;45749;51.140;17.184;2022-10-16T17:19:18;42.58;;;33.58;;
59876;SDS011;45749;51.140;17.184;2022-10-16T17:21:47;42.67;;;32.75;;
59876;SDS011;45749;51.140;17.184;2022-10-16T17:24:17;36.42;;;32.45;;
59876;SDS011;45749;51.140;17.184;2022-10-16T17:26:45;54.08;;;46.23;;
59876;SDS011;45749;51.140;17.184;2022-10-16T17:29:13;41.98;;;33.75;;
59876;SDS011;45749;51.140;17.184;2022-10-16T17:31:40;41.08;;;35.08;;
59876;SDS011;45749;51.140;17.184;2022-10-16T17:34:07;27.10;;;24.18;;
59876;SDS011;45749;51.140;17.184;2022-10-16T17:36:36;54.93;;;46.70;;
59876;SDS011;45749;51.140;17.184;2022-10-16T17:39:06;33.10;;;25.40;;
59876;SDS011;45749;51.140;17.184;2022-10-16T17:41:35;26.73;;;24.02;;
59876;SDS011;45749;51.140;17.184;2022-10-16T17:44:03;42.03;;;34.95;;